This is the latest recevied weather packets stored in our database for station/object nz4d-1. If no packets are shown the sender has not sent any weather packets the latest 10 day(s).
| Time | Temp. | Humidity | Pressure | Rain* | Wind** | Luminosity | Snow |
|---|---|---|---|---|---|---|---|
| 1778117404 | 23.89° C | 68% | 1012.7 hPa | 0 mm | - | - | - |
| 1778113204 | 25.56° C | 62% | 1012.2 hPa | 0 mm | - | - | - |
| 1778106004 | 26.67° C | 57% | 1011.8 hPa | 0 mm | - | - | - |
| 1778101204 | 26.67° C | 57% | 1011.5 hPa | 0 mm | - | - | - |
| 1778100005 | 26.67° C | 54% | 1011.9 hPa | 0 mm | - | - | - |
| 1778099404 | 27.22° C | 53% | 1012.6 hPa | 0 mm | - | - | - |
| 1778094604 | 27.78° C | 53% | 1013.5 hPa | 0 mm | - | - | - |
| 1778092204 | 27.22° C | 55% | 1014.1 hPa | 0 mm | - | - | - |
| 1778091604 | 27.22° C | 58% | 1014.2 hPa | 0 mm | - | - | - |
| 1778080807 | 23.89° C | 71% | 1015.9 hPa | 0 mm | - | - | - |
| 1778080205 | 23.89° C | 73% | 1016 hPa | 0 mm | - | - | - |
| 1778073005 | 20° C | 84% | 1016.1 hPa | 0 mm | - | - | - |
| 1778066405 | 15.56° C | 94% | 1015.8 hPa | 0 mm | - | - | - |
| 1778058605 | 15° C | 92% | 1015.7 hPa | 0 mm | - | - | - |
| 1778055606 | 15° C | 89% | 1016.1 hPa | 0 mm | - | - | - |
| 1778053805 | 15.56° C | 88% | 1016.1 hPa | 0 mm | - | - | - |
| 1778047804 | 16.11° C | 86% | 1016.2 hPa | 0 mm | - | - | - |
| 1778047204 | 16.11° C | 86% | 1016.2 hPa | 0 mm | - | - | - |
| 1778046005 | 16.11° C | 85% | 1016.7 hPa | 0 mm | - | - | - |
| 1778043605 | 16.67° C | 83% | 1016.9 hPa | 0 mm | - | - | - |
| 1778034605 | 18.89° C | 74% | 1017.3 hPa | 0 mm | - | - | - |
| 1778033404 | 18.89° C | 73% | 1017.2 hPa | 0 mm | - | - | - |
| 1778032205 | 19.44° C | 73% | 1017.1 hPa | 0 mm | - | - | - |
| 1778031005 | 20° C | 73% | 1017 hPa | 0 mm | - | - | - |
| 1778029205 | 20.56° C | 71% | 1016.7 hPa | 0 mm | - | - | - |
* Rain latest hour (hover to see other rain measurements)
** Current wind speed in m/s (hover to see current wind gust speed)